Terminal Aerodrome Forecast
Issued by NWS

Home | Current Version | Previous Version | Text Only | Print | Product List | Glossary On
Versions: 1 2 3 4 5 6 7 8 9 10 11 12 13
000
FTUS43 KLSX 081700
TAFUIN
TAF
KUIN 081720Z 0818/0918 31014KT P6SM SCT035
     FM090100 28005KT P6SM FEW060
     FM091500 32008KT P6SM FEW035=

USA.gov is the U.S. government's official web portal to all federal, state and local government web resources and services.